createdAt,value
2023-04-02T00:00:24.475Z,99.99
2023-04-02T00:01:24.434Z,99.99
2023-04-02T00:02:24.426Z,99.99
2023-04-02T00:03:24.535Z,99.99
2023-04-02T00:04:24.393Z,99.99
2023-04-02T00:05:24.377Z,99.99
2023-04-02T00:06:24.380Z,99.99
2023-04-02T00:07:24.346Z,99.99
2023-04-02T00:08:24.352Z,99.99
2023-04-02T00:09:24.520Z,99.99
2023-04-02T00:10:24.304Z,99.99
2023-04-02T00:11:24.287Z,99.99
2023-04-02T00:12:24.286Z,99.99
2023-04-02T00:13:24.268Z,99.99
2023-04-02T00:14:24.262Z,99.99
2023-04-02T00:15:24.234Z,99.99
2023-04-02T00:16:24.272Z,99.99
2023-04-02T00:17:24.210Z,99.99
2023-04-02T00:18:24.224Z,99.99
2023-04-02T00:19:24.186Z,99.99
2023-04-02T00:20:24.167Z,99.99
2023-04-02T00:21:24.150Z,99.99
2023-04-02T00:22:24.142Z,99.99
2023-04-02T00:23:24.128Z,99.99
2023-04-02T00:24:24.122Z,99.99
2023-04-02T00:25:24.101Z,99.99
2023-04-02T00:26:24.091Z,99.99
2023-04-02T00:27:24.072Z,99.99
2023-04-02T00:28:24.068Z,99.99
2023-04-02T00:29:24.046Z,99.99
2023-04-02T00:30:24.028Z,99.99
2023-04-02T00:31:24.045Z,99.99
2023-04-02T00:32:24.028Z,99.99
2023-04-02T00:33:23.991Z,99.99
2023-04-02T00:34:23.975Z,99.99
2023-04-02T00:35:23.967Z,99.99
2023-04-02T00:36:23.961Z,99.99
2023-04-02T00:37:23.995Z,99.99
2023-04-02T00:38:23.929Z,99.99
2023-04-02T00:39:23.914Z,99.99
2023-04-02T00:40:23.893Z,99.99
2023-04-02T00:41:23.884Z,99.99
2023-04-02T00:42:23.868Z,99.99
2023-04-02T00:43:23.855Z,99.99
2023-04-02T00:44:23.864Z,99.99
2023-04-02T00:45:23.828Z,99.99
2023-04-02T00:46:23.857Z,99.99
2023-04-02T00:47:23.797Z,99.99
2023-04-02T00:48:23.816Z,99.99
2023-04-02T00:49:23.779Z,99.99
2023-04-02T00:50:23.766Z,99.99
2023-04-02T00:51:23.746Z,99.99
2023-04-02T00:52:23.736Z,99.99
2023-04-02T00:53:23.721Z,99.99
2023-04-02T00:54:23.707Z,99.99
2023-04-02T00:55:23.708Z,99.99
2023-04-02T00:56:23.674Z,99.99
2023-04-02T00:57:23.679Z,99.99
2023-04-02T00:58:23.648Z,99.99
2023-04-02T00:59:23.637Z,99.99
2023-04-02T01:00:23.629Z,99.99
2023-04-02T01:01:23.941Z,99.99
2023-04-02T01:02:23.645Z,99.99
2023-04-02T01:03:23.641Z,99.99
2023-04-02T01:04:23.598Z,99.99
2023-04-02T01:05:23.571Z,99.99
2023-04-02T01:06:23.589Z,99.99
2023-04-02T01:07:23.527Z,99.99
2023-04-02T01:08:23.519Z,99.99
2023-04-02T01:09:23.520Z,99.99
2023-04-02T01:10:23.489Z,99.99
2023-04-02T01:11:23.528Z,99.99
2023-04-02T01:12:23.450Z,99.99
2023-04-02T01:13:23.452Z,99.99
2023-04-02T01:14:23.435Z,99.99
2023-04-02T01:15:23.411Z,99.99
2023-04-02T01:16:23.461Z,99.99
2023-04-02T01:17:23.517Z,99.99
2023-04-02T01:18:23.367Z,99.99
2023-04-02T01:19:23.355Z,99.99
2023-04-02T01:20:23.580Z,99.99
2023-04-02T01:21:23.532Z,99.99
2023-04-02T01:22:23.329Z,99.99
2023-04-02T01:23:23.305Z,99.99
2023-04-02T01:24:23.287Z,99.99
2023-04-02T01:25:23.486Z,99.99
2023-04-02T01:26:23.260Z,99.99
2023-04-02T01:27:23.246Z,99.99
2023-04-02T01:28:23.229Z,99.99
2023-04-02T01:29:23.216Z,99.99
2023-04-02T01:30:23.198Z,99.99
2023-04-02T01:31:23.244Z,99.99
2023-04-02T01:32:23.185Z,99.99
2023-04-02T01:33:23.159Z,99.99
2023-04-02T01:34:23.872Z,99.99
2023-04-02T01:35:23.135Z,99.99
2023-04-02T01:36:23.146Z,99.99
2023-04-02T01:37:23.192Z,99.99
2023-04-02T01:38:23.097Z,99.99
2023-04-02T01:39:23.083Z,99.99
2023-04-02T01:40:23.071Z,99.99
2023-04-02T01:41:23.053Z,99.99
2023-04-02T01:42:23.043Z,99.99
2023-04-02T01:43:23.030Z,99.99
2023-04-02T01:44:23.004Z,99.99
2023-04-02T01:45:22.998Z,99.99
2023-04-02T01:46:23.034Z,99.99
2023-04-02T01:47:22.966Z,99.99
2023-04-02T01:48:22.955Z,99.99
2023-04-02T01:49:22.941Z,99.99
2023-04-02T01:50:22.926Z,99.99
2023-04-02T01:51:23.063Z,99.99
2023-04-02T01:52:22.924Z,99.99
2023-04-02T01:53:22.892Z,99.99
2023-04-02T01:54:22.876Z,99.99
2023-04-02T01:55:22.860Z,99.99
2023-04-02T01:56:22.841Z,99.99
2023-04-02T01:57:22.930Z,99.99
2023-04-02T01:58:22.815Z,99.99
2023-04-02T01:59:22.811Z,99.99
2023-04-02T02:00:22.807Z,99.99
2023-04-02T02:01:22.928Z,99.99
2023-04-02T02:02:22.788Z,99.99
2023-04-02T02:03:23.003Z,99.99
2023-04-02T02:04:22.739Z,99.99
2023-04-02T02:05:22.723Z,99.99
2023-04-02T02:06:22.705Z,99.99
2023-04-02T02:07:22.689Z,99.99
2023-04-02T02:08:22.700Z,99.99
2023-04-02T02:09:22.670Z,99.99
2023-04-02T02:10:22.666Z,99.99
2023-04-02T02:11:22.640Z,99.99
2023-04-02T02:12:22.639Z,99.99
2023-04-02T02:13:22.618Z,99.99
2023-04-02T02:14:22.608Z,99.99
2023-04-02T02:15:23.151Z,99.99
2023-04-02T02:16:22.577Z,99.99
2023-04-02T02:17:22.583Z,99.99
2023-04-02T02:18:22.548Z,99.99
2023-04-02T02:19:22.545Z,99.99
2023-04-02T02:20:22.519Z,99.99
2023-04-02T02:21:22.507Z,99.99
2023-04-02T02:22:22.502Z,99.99
2023-04-02T02:23:22.477Z,99.99
2023-04-02T02:24:22.565Z,99.99
2023-04-02T02:25:22.460Z,99.99
2023-04-02T02:26:22.441Z,99.99
2023-04-02T02:27:22.436Z,99.99
2023-04-02T02:28:22.418Z,99.99
2023-04-02T02:29:22.398Z,99.99
2023-04-02T02:30:22.395Z,99.99
2023-04-02T02:31:22.407Z,99.99
2023-04-02T02:32:22.397Z,99.99
2023-04-02T02:33:22.343Z,99.99
2023-04-02T02:34:22.407Z,99.99
2023-04-02T02:35:22.413Z,99.99
2023-04-02T02:36:22.328Z,99.99
2023-04-02T02:37:22.288Z,99.99
2023-04-02T02:38:22.276Z,99.99
2023-04-02T02:39:22.285Z,99.99
2023-04-02T02:40:22.273Z,99.99
2023-04-02T02:41:22.243Z,99.99
2023-04-02T02:42:22.221Z,99.99
2023-04-02T02:43:22.214Z,99.99
2023-04-02T02:44:22.194Z,99.99
2023-04-02T02:45:22.177Z,99.99
2023-04-02T02:46:22.193Z,99.99
2023-04-02T02:47:22.261Z,99.99
2023-04-02T02:48:22.135Z,99.99
2023-04-02T02:49:22.121Z,99.99
2023-04-02T02:50:22.141Z,99.99
2023-04-02T02:51:22.094Z,99.99
2023-04-02T02:52:22.079Z,99.99
2023-04-02T02:53:22.079Z,99.99
2023-04-02T02:54:22.066Z,99.99
2023-04-02T02:55:22.041Z,99.99
2023-04-02T02:56:22.048Z,99.99
2023-04-02T02:57:22.076Z,99.99
2023-04-02T02:58:21.994Z,99.99
2023-04-02T02:59:21.979Z,99.99
2023-04-02T03:00:22.017Z,99.99
2023-04-02T03:01:21.984Z,99.99
2023-04-02T03:02:22.010Z,99.99
2023-04-02T03:03:22.064Z,99.99
2023-04-02T03:04:21.934Z,99.99
2023-04-02T03:05:21.897Z,99.99
2023-04-02T03:06:21.892Z,99.99
2023-04-02T03:07:21.876Z,99.99
2023-04-02T03:08:21.859Z,99.99
2023-04-02T03:09:21.843Z,99.99
2023-04-02T03:10:21.832Z,99.99
2023-04-02T03:11:21.826Z,99.99
2023-04-02T03:12:21.825Z,99.99
2023-04-02T03:13:21.810Z,99.99
2023-04-02T03:14:21.811Z,99.99
2023-04-02T03:15:21.768Z,99.99
2023-04-02T03:16:21.783Z,99.99
2023-04-02T03:17:21.733Z,99.99
2023-04-02T03:18:21.722Z,99.99
2023-04-02T03:19:21.708Z,99.99
2023-04-02T03:20:21.699Z,99.99
2023-04-02T03:21:21.680Z,99.99
2023-04-02T03:22:21.666Z,99.99
2023-04-02T03:23:21.658Z,99.99
2023-04-02T03:24:21.643Z,99.99
2023-04-02T03:25:21.628Z,99.99
2023-04-02T03:26:21.619Z,99.99
2023-04-02T03:27:21.598Z,99.99
2023-04-02T03:28:21.616Z,99.99
2023-04-02T03:29:21.608Z,99.99
2023-04-02T03:30:21.584Z,99.99
2023-04-02T03:31:21.594Z,99.99
2023-04-02T03:32:21.553Z,99.99
2023-04-02T03:33:21.522Z,99.99
2023-04-02T03:34:21.522Z,99.99
2023-04-02T03:35:21.503Z,99.99
2023-04-02T03:36:21.549Z,99.99
2023-04-02T03:37:21.467Z,99.99
2023-04-02T03:38:21.459Z,99.99
2023-04-02T03:39:21.438Z,99.99
2023-04-02T03:40:21.432Z,99.99
2023-04-02T03:41:21.410Z,99.99
2023-04-02T03:42:21.402Z,99.99
2023-04-02T03:43:21.384Z,99.99
2023-04-02T03:44:21.399Z,99.99
2023-04-02T03:45:21.359Z,99.99
2023-04-02T03:46:21.389Z,99.99
2023-04-02T03:47:21.535Z,99.99
2023-04-02T03:48:21.316Z,99.99
2023-04-02T03:49:21.306Z,99.99
2023-04-02T03:50:21.292Z,99.99
2023-04-02T03:51:21.274Z,99.99
2023-04-02T03:52:21.316Z,99.99
2023-04-02T03:53:21.254Z,99.99
2023-04-02T03:54:21.243Z,99.99
2023-04-02T03:55:21.228Z,99.99
2023-04-02T03:56:21.221Z,99.99
2023-04-02T03:57:21.224Z,99.99
2023-04-02T03:58:21.194Z,99.99
2023-04-02T03:59:21.172Z,99.99
2023-04-02T04:00:21.179Z,99.99
2023-04-02T04:01:21.145Z,99.99
2023-04-02T04:02:21.543Z,99.99
2023-04-02T04:03:21.109Z,99.99
2023-04-02T04:04:21.166Z,99.99
2023-04-02T04:05:21.087Z,99.99
2023-04-02T04:06:21.401Z,99.99
2023-04-02T04:07:21.057Z,99.99
2023-04-02T04:08:21.074Z,99.99
2023-04-02T04:09:21.049Z,99.99
2023-04-02T04:10:21.025Z,99.99
2023-04-02T04:11:21.034Z,99.99
2023-04-02T04:12:21.000Z,99.99
2023-04-02T04:13:20.980Z,99.99
2023-04-02T04:14:20.984Z,99.99
2023-04-02T04:15:20.954Z,99.99
2023-04-02T04:16:20.984Z,99.99
2023-04-02T04:17:20.917Z,99.99
2023-04-02T04:18:20.913Z,99.99
2023-04-02T04:19:20.892Z,99.99
2023-04-02T04:20:20.984Z,99.99
2023-04-02T04:21:20.869Z,99.99
2023-04-02T04:22:20.857Z,99.99
2023-04-02T04:23:20.849Z,99.99
2023-04-02T04:24:20.823Z,99.99
2023-04-02T04:25:20.810Z,99.99
2023-04-02T04:26:20.802Z,99.99
2023-04-02T04:27:20.790Z,99.99
2023-04-02T04:28:20.780Z,99.99
2023-04-02T04:29:20.765Z,99.99
2023-04-02T04:30:20.753Z,99.99
2023-04-02T04:31:21.174Z,99.99
2023-04-02T04:32:20.758Z,99.99
2023-04-02T04:33:20.713Z,99.99
2023-04-02T04:34:20.696Z,99.99
2023-04-02T04:35:20.680Z,99.99
2023-04-02T04:36:20.670Z,99.99
2023-04-02T04:37:20.650Z,99.99
2023-04-02T04:38:20.641Z,99.99
2023-04-02T04:39:20.626Z,99.99
2023-04-02T04:40:20.608Z,99.99
2023-04-02T04:41:20.593Z,99.99
2023-04-02T04:42:20.578Z,99.99
2023-04-02T04:43:20.573Z,99.99
2023-04-02T04:44:20.556Z,99.99
2023-04-02T04:45:20.541Z,99.99
2023-04-02T04:46:20.613Z,99.99
2023-04-02T04:47:20.591Z,99.99
2023-04-02T04:48:20.542Z,99.99
2023-04-02T04:49:20.492Z,99.99
2023-04-02T04:50:20.491Z,99.99
2023-04-02T04:51:20.462Z,99.99
2023-04-02T04:52:20.459Z,99.99
2023-04-02T04:53:20.442Z,99.99
2023-04-02T04:54:20.420Z,99.99
2023-04-02T04:55:20.409Z,99.99
2023-04-02T04:56:20.399Z,99.99
2023-04-02T04:57:20.500Z,99.99
2023-04-02T04:58:20.370Z,99.99
2023-04-02T04:59:20.372Z,99.99
2023-04-02T05:00:20.343Z,99.99
2023-04-02T05:01:20.336Z,99.99
2023-04-02T05:02:20.314Z,99.99
2023-04-02T05:03:20.300Z,99.99
2023-04-02T05:04:20.336Z,99.99
2023-04-02T05:05:20.318Z,99.99
2023-04-02T05:06:20.254Z,99.99
2023-04-02T05:07:20.450Z,99.99
2023-04-02T05:08:20.228Z,99.99
2023-04-02T05:09:20.211Z,99.99
2023-04-02T05:10:20.201Z,99.99
2023-04-02T05:11:20.187Z,99.99
2023-04-02T05:12:20.429Z,99.99
2023-04-02T05:13:20.164Z,99.99
2023-04-02T05:14:20.153Z,99.99
2023-04-02T05:15:20.141Z,99.99
2023-04-02T05:16:20.215Z,99.99
2023-04-02T05:17:20.108Z,99.99
2023-04-02T05:18:20.101Z,99.99
2023-04-02T05:19:20.085Z,99.99
2023-04-02T05:20:20.088Z,99.99
2023-04-02T05:21:20.058Z,99.99
2023-04-02T05:22:20.240Z,99.99
2023-04-02T05:23:20.032Z,99.99
2023-04-02T05:24:20.011Z,99.99
2023-04-02T05:25:19.994Z,99.99
2023-04-02T05:26:20.010Z,99.99
2023-04-02T05:27:20.218Z,99.99
2023-04-02T05:28:19.971Z,99.99
2023-04-02T05:29:19.947Z,99.99
2023-04-02T05:30:20.269Z,99.99
2023-04-02T05:31:19.965Z,99.99
2023-04-02T05:32:19.902Z,99.99
2023-04-02T05:33:19.893Z,99.99
2023-04-02T05:34:19.874Z,99.99
2023-04-02T05:35:19.870Z,99.99
2023-04-02T05:36:19.948Z,99.99
2023-04-02T05:37:19.844Z,99.99
2023-04-02T05:38:19.832Z,99.99
2023-04-02T05:39:19.809Z,99.99
2023-04-02T05:40:19.797Z,99.99
2023-04-02T05:41:20.082Z,99.99
2023-04-02T05:42:19.768Z,99.99
2023-04-02T05:43:19.756Z,99.99
2023-04-02T05:44:19.750Z,99.99
2023-04-02T05:45:19.743Z,99.99
2023-04-02T05:46:19.722Z,99.99
2023-04-02T05:47:19.704Z,99.99
2023-04-02T05:48:19.692Z,99.99
2023-04-02T05:49:19.685Z,99.99
2023-04-02T05:50:19.665Z,99.99
2023-04-02T05:51:19.655Z,99.99
2023-04-02T05:52:19.660Z,99.99
2023-04-02T05:53:19.621Z,99.99
2023-04-02T05:54:19.602Z,99.99
2023-04-02T05:55:19.604Z,99.99
2023-04-02T05:56:19.581Z,99.99
2023-04-02T05:57:20.134Z,99.99
2023-04-02T05:58:34.533Z,99.99
2023-04-02T05:59:20.772Z,99.99
2023-04-02T06:00:19.524Z,99.99
2023-04-02T06:01:19.510Z,99.99
2023-04-02T06:02:19.525Z,99.99
2023-04-02T06:03:19.593Z,99.99
2023-04-02T06:04:19.474Z,99.99
2023-04-02T06:05:19.458Z,99.99
2023-04-02T06:06:19.443Z,99.99
2023-04-02T06:07:19.433Z,99.99
2023-04-02T06:08:19.449Z,99.99
2023-04-02T06:09:19.403Z,99.99
2023-04-02T06:10:19.395Z,99.99
2023-04-02T06:11:19.374Z,99.99
2023-04-02T06:12:19.391Z,99.99
2023-04-02T06:13:19.350Z,99.99
2023-04-02T06:14:19.365Z,99.99
2023-04-02T06:15:19.325Z,99.99
2023-04-02T06:16:19.468Z,99.99
2023-04-02T06:17:19.299Z,99.99
2023-04-02T06:18:19.379Z,99.99
2023-04-02T06:19:19.505Z,99.99
2023-04-02T06:20:19.248Z,99.99
2023-04-02T06:21:19.235Z,99.99
2023-04-02T06:22:19.521Z,99.99
2023-04-02T06:23:19.219Z,99.99
2023-04-02T06:24:19.723Z,99.99
2023-04-02T06:25:19.211Z,99.99
2023-04-02T06:26:19.174Z,99.99
2023-04-02T06:27:19.160Z,99.99
2023-04-02T06:28:19.141Z,99.99
2023-04-02T06:29:19.127Z,99.99
2023-04-02T06:30:19.115Z,99.99
2023-04-02T06:31:19.133Z,99.99
2023-04-02T06:32:19.102Z,99.99
2023-04-02T06:33:19.079Z,99.99
2023-04-02T06:34:19.078Z,99.99
2023-04-02T06:35:19.056Z,99.99
2023-04-02T06:36:19.070Z,99.99
2023-04-02T06:37:19.025Z,99.99
2023-04-02T06:38:19.016Z,99.99
2023-04-02T06:39:19.017Z,99.99
2023-04-02T06:40:19.007Z,99.99
2023-04-02T06:41:18.967Z,99.99
2023-04-02T06:42:18.955Z,99.99
2023-04-02T06:43:18.942Z,99.99
2023-04-02T06:44:18.926Z,99.99
2023-04-02T06:45:18.915Z,99.99
2023-04-02T06:46:18.932Z,99.99
2023-04-02T06:47:18.893Z,99.99
2023-04-02T06:48:18.879Z,99.99
2023-04-02T06:49:18.871Z,99.99
2023-04-02T06:50:18.858Z,99.99
2023-04-02T06:51:18.835Z,99.99
2023-04-02T06:52:18.825Z,99.99
2023-04-02T06:53:18.811Z,99.99
2023-04-02T06:54:18.797Z,99.40
2023-04-02T06:55:18.834Z,96.42
2023-04-02T06:56:18.786Z,98.07
2023-04-02T06:57:18.770Z,96.78
2023-04-02T06:58:18.736Z,97.60
2023-04-02T06:59:18.737Z,97.04
2023-04-02T07:00:18.718Z,97.20
2023-04-02T07:01:18.727Z,96.99
2023-04-02T07:02:18.682Z,95.70
2023-04-02T07:03:18.674Z,94.83
2023-04-02T07:04:18.656Z,97.19
2023-04-02T07:05:18.691Z,96.92
2023-04-02T07:06:18.873Z,97.54
2023-04-02T07:07:18.611Z,97.28
2023-04-02T07:08:18.609Z,97.58
2023-04-02T07:09:18.582Z,98.71
2023-04-02T07:10:18.573Z,98.35
2023-04-02T07:11:20.756Z,98.35
2023-04-02T07:12:18.569Z,97.67
2023-04-02T07:13:18.533Z,98.14
2023-04-02T07:14:18.523Z,98.29
2023-04-02T07:15:18.499Z,99.01
2023-04-02T07:16:18.636Z,99.21
2023-04-02T07:17:18.478Z,98.85
2023-04-02T07:18:18.462Z,99.42
2023-04-02T07:19:18.452Z,99.99
2023-04-02T07:20:18.440Z,99.99
2023-04-02T07:21:18.418Z,99.99
2023-04-02T07:22:18.403Z,99.99
2023-04-02T07:23:18.395Z,99.99
2023-04-02T07:24:18.375Z,99.99
2023-04-02T07:25:18.367Z,99.99
2023-04-02T07:26:18.363Z,99.07
2023-04-02T07:27:18.335Z,97.73
2023-04-02T07:28:19.163Z,98.66
2023-04-02T07:29:18.314Z,98.66
2023-04-02T07:30:18.300Z,99.38
2023-04-02T07:31:18.313Z,99.68
2023-04-02T07:32:18.263Z,99.99
2023-04-02T07:33:18.253Z,99.99
2023-04-02T07:34:18.240Z,99.99
2023-04-02T07:35:18.225Z,99.99
2023-04-02T07:36:18.280Z,99.99
2023-04-02T07:37:18.200Z,99.99
2023-04-02T07:38:18.189Z,99.28
2023-04-02T07:39:18.476Z,99.99
2023-04-02T07:40:18.160Z,99.99
2023-04-02T07:41:18.162Z,99.24
2023-04-02T07:42:18.134Z,98.21
2023-04-02T07:43:18.122Z,97.70
2023-04-02T07:44:18.327Z,98.37
2023-04-02T07:45:18.093Z,99.19
2023-04-02T07:46:18.167Z,98.12
2023-04-02T07:47:18.061Z,97.65
2023-04-02T07:48:18.049Z,98.53
2023-04-02T07:49:18.036Z,98.63
2023-04-02T07:50:18.048Z,98.74
2023-04-02T07:51:18.013Z,95.15
2023-04-02T07:52:17.995Z,94.58
2023-04-02T07:53:17.986Z,95.56
2023-04-02T07:54:17.970Z,96.28
2023-04-02T07:55:17.957Z,97.40
2023-04-02T07:56:17.952Z,96.95
2023-04-02T07:57:17.957Z,94.70
2023-04-02T07:58:17.915Z,93.57
2023-04-02T07:59:17.902Z,94.90
2023-04-02T08:00:17.921Z,94.49
2023-04-02T08:01:17.879Z,93.41
2023-04-02T08:02:17.911Z,95.31
2023-04-02T08:03:17.925Z,96.07
2023-04-02T08:04:18.008Z,94.29
2023-04-02T08:05:17.819Z,93.67
2023-04-02T08:06:17.802Z,93.47
2023-04-02T08:07:17.788Z,94.12
2023-04-02T08:08:17.776Z,94.80
2023-04-02T08:09:17.798Z,91.83
2023-04-02T08:10:17.812Z,92.03
2023-04-02T08:11:17.754Z,89.00
2023-04-02T08:12:17.728Z,91.56
2023-04-02T08:13:17.719Z,91.93
2023-04-02T08:14:17.702Z,91.26
2023-04-02T08:15:17.701Z,91.77
2023-04-02T08:16:17.730Z,92.28
2023-04-02T08:17:17.654Z,92.79
2023-04-02T08:18:17.648Z,90.54
2023-04-02T08:19:17.632Z,91.87
2023-04-02T08:20:17.621Z,91.46
2023-04-02T08:21:17.610Z,93.30
2023-04-02T08:22:17.598Z,94.70
2023-04-02T08:23:17.584Z,92.85
2023-04-02T08:24:17.564Z,92.75
2023-04-02T08:25:17.577Z,92.34
2023-04-02T08:26:17.538Z,93.57
2023-04-02T08:27:17.528Z,91.93
2023-04-02T08:28:17.509Z,92.24
2023-04-02T08:29:17.501Z,91.42
2023-04-02T08:30:17.495Z,92.44
2023-04-02T08:31:17.540Z,93.67
2023-04-02T08:32:17.477Z,93.22
2023-04-02T08:33:17.448Z,93.43
2023-04-02T08:34:17.455Z,91.89
2023-04-02T08:35:17.434Z,92.50
2023-04-02T08:36:17.455Z,92.14
2023-04-02T08:37:17.393Z,91.63
2023-04-02T08:38:17.380Z,91.52
2023-04-02T08:39:17.363Z,88.59
2023-04-02T08:40:17.358Z,92.28
2023-04-02T08:41:17.345Z,92.44
2023-04-02T08:42:17.326Z,94.02
2023-04-02T08:43:17.317Z,93.77
2023-04-02T08:44:17.314Z,92.28
2023-04-02T08:45:25.121Z,92.03
2023-04-02T08:46:18.369Z,92.03
2023-04-02T08:47:17.263Z,91.52
2023-04-02T08:48:17.267Z,89.47
2023-04-02T08:49:17.233Z,91.97
2023-04-02T08:50:17.216Z,93.47
2023-04-02T08:51:17.213Z,91.46
2023-04-02T08:52:17.186Z,91.83
2023-04-02T08:53:17.182Z,88.76
2023-04-02T08:54:17.172Z,92.03
2023-04-02T08:55:17.149Z,91.73
2023-04-02T08:56:17.147Z,92.10
2023-04-02T08:57:17.169Z,92.19
2023-04-02T08:58:17.118Z,91.69
2023-04-02T08:59:17.118Z,92.25
2023-04-02T09:00:17.105Z,91.13
2023-04-02T09:01:17.110Z,90.52
2023-04-02T09:02:17.055Z,92.25
2023-04-02T09:03:17.050Z,92.21
2023-04-02T09:04:17.067Z,91.70
2023-04-02T09:05:17.012Z,88.98
2023-04-02T09:06:16.997Z,90.17
2023-04-02T09:07:16.990Z,88.84
2023-04-02T09:08:16.986Z,89.61
2023-04-02T09:09:16.967Z,88.02
2023-04-02T09:10:16.961Z,90.37
2023-04-02T09:11:16.942Z,90.64
2023-04-02T09:12:16.920Z,87.26
2023-04-02T09:13:16.902Z,87.67
2023-04-02T09:14:16.895Z,85.94
2023-04-02T09:15:16.879Z,87.10
2023-04-02T09:16:16.920Z,91.15
2023-04-02T09:17:16.850Z,90.12
2023-04-02T09:18:16.881Z,87.77
2023-04-02T09:19:16.824Z,88.76
2023-04-02T09:20:16.877Z,87.32
2023-04-02T09:21:16.817Z,87.53
2023-04-02T09:22:16.786Z,87.26
2023-04-02T09:23:16.787Z,87.37
2023-04-02T09:24:16.758Z,88.39
2023-04-02T09:25:16.751Z,85.18
2023-04-02T09:26:16.732Z,85.08
2023-04-02T09:27:16.718Z,87.18
2023-04-02T09:28:16.698Z,89.39
2023-04-02T09:29:16.696Z,87.08
2023-04-02T09:30:16.717Z,86.16
2023-04-02T09:31:16.710Z,87.14
2023-04-02T09:32:16.953Z,84.18
2023-04-02T09:33:16.635Z,85.71
2023-04-02T09:34:16.615Z,85.00
2023-04-02T09:35:25.624Z,85.47
2023-04-02T09:36:17.659Z,87.71
2023-04-02T09:37:16.592Z,85.68
2023-04-02T09:38:16.572Z,87.47
2023-04-02T09:39:16.564Z,85.84
2023-04-02T09:40:16.548Z,84.41
2023-04-02T09:41:16.527Z,84.45
2023-04-02T09:42:16.518Z,84.25
2023-04-02T09:43:16.510Z,81.49
2023-04-02T09:44:16.481Z,81.90
2023-04-02T09:45:16.475Z,80.71
2023-04-02T09:46:16.530Z,85.41
2023-04-02T09:47:16.442Z,84.45
2023-04-02T09:48:16.432Z,85.06
2023-04-02T09:49:16.417Z,83.23
2023-04-02T09:50:16.405Z,82.10
2023-04-02T09:51:16.384Z,81.39
2023-04-02T09:52:16.412Z,84.96
2023-04-02T09:53:16.371Z,84.28
2023-04-02T09:54:16.383Z,80.24
2023-04-02T09:55:16.334Z,86.02
2023-04-02T09:56:16.325Z,86.43
2023-04-02T09:57:16.335Z,83.12
2023-04-02T09:58:16.297Z,84.55
2023-04-02T09:59:16.294Z,83.02
2023-04-02T10:00:41.662Z,84.41
2023-04-02T10:01:17.334Z,86.00
2023-04-02T10:02:16.238Z,81.93
2023-04-02T10:03:16.224Z,82.33
2023-04-02T10:04:16.290Z,78.66
2023-04-02T10:05:23.538Z,79.27
2023-04-02T10:06:17.204Z,80.91
2023-04-02T10:07:16.164Z,80.36
2023-04-02T10:08:16.180Z,81.88
2023-04-02T10:09:16.142Z,80.29
2023-04-02T10:10:16.132Z,83.17
2023-04-02T10:11:16.112Z,79.34
2023-04-02T10:12:16.099Z,78.53
2023-04-02T10:13:16.085Z,77.00
2023-04-02T10:14:16.074Z,79.00
2023-04-02T10:15:16.054Z,78.12
2023-04-02T10:16:16.085Z,81.72
2023-04-02T10:17:16.109Z,81.01
2023-04-02T10:18:16.020Z,81.21
2023-04-02T10:19:16.007Z,80.02
2023-04-02T10:20:16.004Z,81.66
2023-04-02T10:21:15.978Z,81.45
2023-04-02T10:22:15.966Z,79.82
2023-04-02T10:23:16.051Z,80.23
2023-04-02T10:24:15.960Z,81.35
2023-04-02T10:25:15.920Z,84.17
2023-04-02T10:26:15.919Z,83.31
2023-04-02T10:27:15.891Z,80.83
2023-04-02T10:28:15.881Z,80.77
2023-04-02T10:29:15.869Z,76.96
2023-04-02T10:30:15.977Z,79.50
2023-04-02T10:31:15.849Z,81.24
2023-04-02T10:32:15.837Z,79.77
2023-04-02T10:33:15.818Z,82.52
2023-04-02T10:34:15.807Z,81.20
2023-04-02T10:35:15.807Z,81.98
2023-04-02T10:36:15.829Z,82.59
2023-04-02T10:37:15.968Z,77.40
2023-04-02T10:38:15.754Z,77.60
2023-04-02T10:39:15.744Z,77.70
2023-04-02T10:40:15.756Z,79.43
2023-04-02T10:41:15.707Z,76.79
2023-04-02T10:42:15.699Z,75.87
2023-04-02T10:43:15.691Z,78.15
2023-04-02T10:44:20.300Z,78.86
2023-04-02T10:45:15.673Z,77.44
2023-04-02T10:46:15.690Z,79.77
2023-04-02T10:47:15.634Z,77.78
2023-04-02T10:48:15.618Z,78.08
2023-04-02T10:49:15.621Z,78.83
2023-04-02T10:50:15.695Z,78.83
2023-04-02T10:51:15.575Z,80.91
2023-04-02T10:52:15.559Z,82.80
2023-04-02T10:53:15.546Z,79.54
2023-04-02T10:54:15.534Z,79.64
2023-04-02T10:55:15.535Z,79.14
2023-04-02T10:56:15.535Z,79.34
2023-04-02T10:57:15.586Z,81.31
2023-04-02T10:58:15.503Z,78.87
2023-04-02T10:59:15.482Z,79.27
2023-04-02T11:00:15.459Z,80.97
2023-04-02T11:01:15.474Z,81.68
2023-04-02T11:02:15.489Z,80.77
2023-04-02T11:03:15.758Z,77.61
2023-04-02T11:04:15.404Z,77.26
2023-04-02T11:05:15.384Z,78.19
2023-04-02T11:06:15.374Z,80.22
2023-04-02T11:07:15.364Z,80.38
2023-04-02T11:08:15.342Z,77.40
2023-04-02T11:09:15.328Z,79.43
2023-04-02T11:10:15.338Z,77.70
2023-04-02T11:11:15.305Z,75.16
2023-04-02T11:12:15.326Z,78.62
2023-04-02T11:13:15.283Z,79.84
2023-04-02T11:14:15.268Z,76.86
2023-04-02T11:15:15.252Z,80.21
2023-04-02T11:16:15.365Z,75.94
2023-04-02T11:17:15.221Z,79.77
2023-04-02T11:18:15.206Z,75.43
2023-04-02T11:19:15.208Z,79.93
2023-04-02T11:20:15.182Z,79.32
2023-04-02T11:21:15.177Z,78.71
2023-04-02T11:22:15.158Z,77.86
2023-04-02T11:23:15.144Z,74.82
2023-04-02T11:24:15.131Z,74.75
2023-04-02T11:25:15.120Z,74.24
2023-04-02T11:26:15.104Z,73.06
2023-04-02T11:27:15.112Z,75.36
2023-04-02T11:28:15.093Z,72.45
2023-04-02T11:29:15.060Z,71.84
2023-04-02T11:30:15.048Z,73.26
2023-04-02T11:31:15.130Z,75.09
2023-04-02T11:32:15.018Z,73.19
2023-04-02T11:33:18.652Z,75.60
2023-04-02T11:34:14.988Z,74.48
2023-04-02T11:35:14.987Z,75.16
2023-04-02T11:36:15.009Z,73.02
2023-04-02T11:37:14.956Z,71.91
2023-04-02T11:38:14.952Z,70.28
2023-04-02T11:39:17.749Z,72.28
2023-04-02T11:40:14.919Z,76.20
2023-04-02T11:41:14.904Z,75.01
2023-04-02T11:42:14.888Z,73.60
2023-04-02T11:43:14.874Z,69.95
2023-04-02T11:44:14.878Z,70.42
2023-04-02T11:45:14.846Z,70.21
2023-04-02T11:46:14.849Z,72.41
2023-04-02T11:47:14.814Z,67.14
2023-04-02T11:48:14.810Z,67.08
2023-04-02T11:49:14.794Z,67.00
2023-04-02T11:50:14.778Z,66.91
2023-04-02T11:51:14.767Z,72.82
2023-04-02T11:52:14.751Z,72.28
2023-04-02T11:53:14.763Z,68.93
2023-04-02T11:54:14.719Z,68.29
2023-04-02T11:55:14.707Z,66.88
2023-04-02T11:56:14.693Z,68.60
2023-04-02T11:57:14.705Z,71.57
2023-04-02T11:58:14.668Z,72.28
2023-04-02T11:59:14.652Z,73.09
2023-04-02T12:00:16.269Z,69.64
2023-04-02T12:01:14.634Z,68.43
2023-04-02T12:02:14.667Z,72.17
2023-04-02T12:03:14.637Z,72.48
2023-04-02T12:04:14.629Z,68.73
2023-04-02T12:05:14.633Z,66.83
2023-04-02T12:06:14.562Z,67.88
2023-04-02T12:07:14.543Z,71.53
2023-04-02T12:08:14.554Z,70.01
2023-04-02T12:09:14.549Z,72.55
2023-04-02T12:10:14.502Z,72.41
2023-04-02T12:11:14.484Z,75.76
2023-04-02T12:12:14.479Z,77.06
2023-04-02T12:13:14.458Z,74.31
2023-04-02T12:14:14.450Z,77.91
2023-04-02T12:15:14.457Z,75.98
2023-04-02T12:16:14.462Z,79.33
2023-04-02T12:17:14.482Z,78.72
2023-04-02T12:18:14.393Z,80.04
2023-04-02T12:19:14.382Z,77.23
2023-04-02T12:20:14.362Z,78.35
2023-04-02T12:21:14.415Z,80.32
2023-04-02T12:22:14.338Z,77.06
2023-04-02T12:23:14.328Z,77.78
2023-04-02T12:24:14.313Z,77.98
2023-04-02T12:25:14.296Z,79.68
2023-04-02T12:26:14.285Z,79.27
2023-04-02T12:27:14.265Z,79.30
2023-04-02T12:28:14.271Z,75.98
2023-04-02T12:29:14.247Z,78.05
2023-04-02T12:30:14.231Z,79.75
2023-04-02T12:31:14.294Z,79.27
2023-04-02T12:32:14.225Z,81.17
2023-04-02T12:33:14.205Z,79.14
2023-04-02T12:34:14.177Z,81.82
2023-04-02T12:35:14.161Z,78.36
2023-04-02T12:36:14.256Z,79.27
2023-04-02T12:37:14.152Z,80.77
2023-04-02T12:38:14.124Z,80.56
2023-04-02T12:39:14.110Z,77.85
2023-04-02T12:40:14.092Z,79.38
2023-04-02T12:41:14.078Z,78.66
2023-04-02T12:42:14.067Z,78.05
2023-04-02T12:43:14.049Z,78.77
2023-04-02T12:44:14.049Z,79.41
2023-04-02T12:45:14.027Z,80.74
2023-04-02T12:46:14.028Z,79.11
2023-04-02T12:47:13.994Z,77.98
2023-04-02T12:48:14.016Z,79.32
2023-04-02T12:49:13.981Z,78.84
2023-04-02T12:50:13.979Z,80.74
2023-04-02T12:51:13.944Z,77.72
2023-04-02T12:52:13.928Z,80.16